Time;durP1;ratioP1;P1;durP2;ratioP2;P2;SDS_P1;SDS_P2;PMS_P1;PMS_P2;Temp;Humidity;BMP_temperature;BMP_pressure;BME280_temperature;BME280_humidity;BME280_pressure;Samples;Min_cycle;Max_cycle;Signal;HPM_P1;HPM_P2
2022/10/21 00:00:49;;;;;;;11.57;5.60;;;10.50;99.90;;;;;;4958226;28;20034;-73
2022/10/21 00:03:15;;;;;;;8.67;5.43;;;10.50;99.90;;;;;;4958893;28;20038;-73
2022/10/21 00:05:41;;;;;;;9.90;6.13;;;10.50;99.90;;;;;;4942008;28;20026;-73
2022/10/21 00:08:06;;;;;;;12.23;6.15;;;10.60;99.90;;;;;;4962139;28;20117;-73
2022/10/21 00:10:32;;;;;;;17.33;9.20;;;10.50;99.90;;;;;;4961032;28;20034;-73
2022/10/21 00:12:57;;;;;;;12.70;8.60;;;10.50;99.90;;;;;;4960568;28;20062;-73
2022/10/21 00:15:23;;;;;;;14.93;9.18;;;10.60;99.90;;;;;;4953351;28;20551;-73
2022/10/21 00:17:49;;;;;;;14.00;7.15;;;10.70;99.90;;;;;;4953080;28;20046;-73
2022/10/21 00:20:15;;;;;;;16.55;6.90;;;10.80;99.90;;;;;;4950415;28;20281;-73
2022/10/21 00:22:40;;;;;;;11.80;6.00;;;10.90;99.90;;;;;;4958505;28;20027;-73
2022/10/21 00:25:07;;;;;;;13.10;5.80;;;10.90;99.90;;;;;;4962376;28;20029;-73
2022/10/21 00:27:32;;;;;;;11.38;5.95;;;11.00;99.90;;;;;;4959083;28;20499;-73
2022/10/21 00:29:58;;;;;;;9.30;5.30;;;10.90;99.90;;;;;;4959787;28;20035;-73
2022/10/21 00:32:23;;;;;;;13.20;5.88;;;10.90;99.90;;;;;;4941234;28;20046;-73
2022/10/21 00:34:49;;;;;;;11.00;5.90;;;10.90;99.90;;;;;;4959786;28;20026;-73
2022/10/21 00:37:16;;;;;;;8.95;5.07;;;10.80;99.90;;;;;;4955254;28;20137;-73
2022/10/21 00:39:42;;;;;;;13.20;6.28;;;10.80;99.90;;;;;;4955749;28;20031;-73
2022/10/21 00:42:15;;;;;;;14.63;6.72;;;10.80;99.90;;;;;;4955308;28;20039;-73
2022/10/21 00:44:41;;;;;;;13.43;6.22;;;10.80;99.90;;;;;;4937824;28;20057;-73
2022/10/21 00:47:16;;;;;;;13.57;7.45;;;10.90;99.90;;;;;;4955321;28;20402;-73
2022/10/21 00:49:48;;;;;;;13.13;7.32;;;10.90;99.90;;;;;;4953119;28;20039;-72
2022/10/21 00:52:18;;;;;;;12.80;7.32;;;11.00;99.90;;;;;;4957041;28;20055;-73
2022/10/21 00:54:47;;;;;;;13.10;7.25;;;11.00;99.90;;;;;;4956742;28;20039;-72
2022/10/21 00:57:14;;;;;;;14.13;7.30;;;11.00;99.90;;;;;;4956773;28;20049;-72
2022/10/21 00:59:44;;;;;;;12.70;7.20;;;11.00;99.90;;;;;;4959198;28;20506;-72
2022/10/21 01:02:10;;;;;;;12.43;6.53;;;11.10;99.90;;;;;;4957534;28;20069;-72
2022/10/21 01:04:36;;;;;;;10.68;6.65;;;11.10;99.90;;;;;;4953580;28;20066;-72
2022/10/21 01:07:02;;;;;;;12.82;7.70;;;11.10;99.90;;;;;;4956275;28;20098;-72
2022/10/21 01:09:28;;;;;;;18.70;10.15;;;11.10;99.90;;;;;;4954579;28;20070;-73
2022/10/21 01:11:54;;;;;;;16.45;9.40;;;11.10;99.90;;;;;;4961563;28;20031;-72
2022/10/21 01:14:48;;;;;;;20.83;11.38;;;11.10;99.90;;;;;;4962847;28;20107;-73
2022/10/21 01:17:32;;;;;;;17.67;10.35;;;11.10;99.90;;;;;;4965178;28;20030;-73
2022/10/21 01:20:16;;;;;;;21.63;10.73;;;11.20;99.90;;;;;;4959669;28;20472;-73
2022/10/21 01:22:51;;;;;;;21.30;11.98;;;11.30;99.90;;;;;;4960689;28;20032;-73
2022/10/21 01:25:32;;;;;;;24.42;12.63;;;11.40;99.90;;;;;;4964506;28;20054;-73
2022/10/21 01:28:16;;;;;;;22.75;10.68;;;11.40;99.90;;;;;;4957459;28;20035;-72
2022/10/21 01:30:52;;;;;;;25.05;13.35;;;11.50;99.90;;;;;;4964454;28;20038;-72
2022/10/21 01:33:21;;;;;;;27.48;13.85;;;11.50;99.90;;;;;;4959675;28;20039;-72
2022/10/21 01:36:07;;;;;;;33.03;16.77;;;11.50;99.90;;;;;;4963150;28;20190;-73
2022/10/21 01:38:42;;;;;;;28.80;16.00;;;11.50;99.90;;;;;;4961445;28;20038;-72
2022/10/21 01:41:17;;;;;;;24.73;15.68;;;11.60;99.90;;;;;;4957653;28;20141;-73
2022/10/21 01:43:51;;;;;;;30.90;16.70;;;11.60;99.90;;;;;;4955930;28;20496;-72
2022/10/21 01:46:26;;;;;;;22.42;14.55;;;11.70;99.90;;;;;;4950484;28;20077;-73
2022/10/21 01:48:56;;;;;;;60.85;17.83;;;11.80;99.90;;;;;;4958227;28;20045;-73
2022/10/21 01:51:25;;;;;;;29.35;15.75;;;11.80;99.90;;;;;;4957976;28;20533;-72
2022/10/21 01:53:59;;;;;;;28.15;15.73;;;11.80;99.90;;;;;;4957107;28;20113;-73
2022/10/21 01:56:25;;;;;;;21.63;14.30;;;11.80;99.90;;;;;;4963503;28;20474;-73
2022/10/21 01:58:52;;;;;;;48.50;15.20;;;11.80;99.90;;;;;;4958546;28;20035;-73
2022/10/21 02:01:20;;;;;;;37.97;16.70;;;11.80;99.90;;;;;;4957408;28;20421;-73
2022/10/21 02:03:51;;;;;;;54.78;18.65;;;11.80;99.90;;;;;;4957746;28;20031;-73
2022/10/21 02:06:17;;;;;;;35.33;18.40;;;11.80;99.90;;;;;;4959626;28;20031;-73
2022/10/21 02:08:43;;;;;;;35.80;19.15;;;11.80;99.90;;;;;;4961179;28;20477;-73
2022/10/21 02:11:11;;;;;;;34.83;20.70;;;11.80;99.90;;;;;;4963681;28;20066;-73
2022/10/21 02:14:01;;;;;;;27.02;18.05;;;11.90;99.90;;;;;;4955878;28;20134;-72
2022/10/21 02:16:30;;;;;;;35.50;19.25;;;12.00;99.90;;;;;;4955463;28;20489;-73
2022/10/21 02:18:58;;;;;;;37.22;21.50;;;12.10;99.90;;;;;;4944776;28;20042;-73
2022/10/21 02:21:26;;;;;;;36.13;20.80;;;12.20;99.90;;;;;;4961136;28;20035;-73
2022/10/21 02:24:26;;;;;;;38.55;21.23;;;12.40;99.90;;;;;;4954060;28;20525;-72
2022/10/21 02:26:52;;;;;;;42.83;23.13;;;12.50;99.90;;;;;;4955140;28;20034;-73
2022/10/21 02:29:24;;;;;;;36.97;20.88;;;12.60;99.90;;;;;;4963038;28;20406;-73
2022/10/21 02:32:41;;;;;;;34.88;18.60;;;12.70;99.90;;;;;;4959841;28;20717;-73
2022/10/21 02:35:33;;;;;;;33.50;18.77;;;12.60;99.90;;;;;;4931094;28;20082;-73
2022/10/21 02:38:13;;;;;;;33.47;18.55;;;12.50;99.90;;;;;;4955658;28;20142;-73
2022/10/21 02:40:58;;;;;;;31.73;17.15;;;12.40;99.90;;;;;;4962019;28;20026;-73
2022/10/21 02:43:28;;;;;;;30.40;17.42;;;12.20;99.90;;;;;;4954714;28;20031;-73
2022/10/21 02:46:00;;;;;;;41.40;17.42;;;12.10;99.90;;;;;;4956176;28;20516;-72
2022/10/21 02:48:25;;;;;;;27.00;16.13;;;12.00;99.90;;;;;;4955663;28;20031;-73
2022/10/21 02:50:51;;;;;;;30.02;16.90;;;11.90;99.90;;;;;;4957635;28;20027;-73
2022/10/21 02:53:16;;;;;;;52.13;16.88;;;11.90;99.90;;;;;;4957995;28;20041;-73
2022/10/21 02:55:42;;;;;;;38.67;16.75;;;11.80;99.90;;;;;;4960395;28;20596;-73
2022/10/21 02:58:08;;;;;;;41.85;17.00;;;11.70;99.90;;;;;;4958851;28;20512;-73
2022/10/21 03:00:33;;;;;;;30.73;17.40;;;11.70;99.90;;;;;;4960001;28;20122;-73
2022/10/21 03:02:59;;;;;;;43.78;18.23;;;11.70;99.90;;;;;;4958495;28;20035;-73
2022/10/21 03:05:25;;;;;;;31.83;16.88;;;11.60;99.90;;;;;;4959333;28;20030;-73
2022/10/21 03:07:50;;;;;;;41.55;16.70;;;11.60;99.90;;;;;;4961534;28;20125;-73
2022/10/21 03:10:16;;;;;;;23.15;14.10;;;11.60;99.90;;;;;;4957280;28;20482;-73
2022/10/21 03:12:42;;;;;;;22.70;14.35;;;11.60;99.90;;;;;;4961439;28;20043;-73
2022/10/21 03:15:08;;;;;;;26.70;15.02;;;11.70;99.90;;;;;;4956183;28;20051;-73
2022/10/21 03:17:33;;;;;;;22.00;13.73;;;12.00;99.90;;;;;;4957239;28;20054;-73
2022/10/21 03:19:59;;;;;;;29.27;15.13;;;12.10;99.90;;;;;;4957731;28;20190;-73
2022/10/21 03:22:24;;;;;;;27.40;15.02;;;12.20;99.90;;;;;;4955183;28;20039;-73
2022/10/21 03:24:50;;;;;;;26.58;14.63;;;12.20;99.90;;;;;;4962181;28;20069;-73
2022/10/21 03:27:16;;;;;;;24.60;14.32;;;12.10;99.90;;;;;;4943427;28;20042;-73
2022/10/21 03:29:41;;;;;;;30.20;14.40;;;12.00;99.90;;;;;;4958427;28;20401;-73
2022/10/21 03:32:07;;;;;;;28.20;14.30;;;12.00;99.90;;;;;;4959283;28;20151;-73
2022/10/21 03:34:32;;;;;;;32.60;13.75;;;11.80;99.90;;;;;;4956143;28;20401;-73
2022/10/21 03:36:58;;;;;;;22.42;11.43;;;11.70;99.90;;;;;;4962374;28;20047;-73
2022/10/21 03:39:24;;;;;;;29.00;11.23;;;11.70;99.90;;;;;;4959268;28;20074;-73
2022/10/21 03:41:49;;;;;;;18.38;9.25;;;11.70;99.90;;;;;;4958102;28;20629;-73
2022/10/21 03:44:15;;;;;;;17.25;10.13;;;11.70;99.90;;;;;;4954987;28;20576;-73
2022/10/21 03:46:40;;;;;;;18.20;11.35;;;11.80;99.90;;;;;;4958204;28;20031;-73
2022/10/21 03:49:09;;;;;;;22.15;11.27;;;11.80;99.90;;;;;;4962374;28;20787;-73
2022/10/21 03:51:35;;;;;;;22.00;10.95;;;11.90;99.90;;;;;;4958587;28;20046;-73
2022/10/21 03:54:00;;;;;;;19.08;10.25;;;12.10;99.90;;;;;;4958058;28;20030;-72
2022/10/21 03:56:26;;;;;;;20.52;10.07;;;12.30;99.90;;;;;;4963022;28;20933;-73
2022/10/21 03:58:52;;;;;;;19.00;11.48;;;12.40;99.90;;;;;;4967068;28;20027;-73
2022/10/21 04:01:17;;;;;;;26.73;11.00;;;12.40;99.90;;;;;;4964572;28;20034;-73
2022/10/21 04:03:43;;;;;;;24.42;10.43;;;12.30;99.90;;;;;;4951314;28;20047;-73
2022/10/21 04:06:09;;;;;;;22.88;10.40;;;12.50;99.90;;;;;;4967630;28;20468;-73
2022/10/21 04:08:34;;;;;;;19.08;7.82;;;12.70;99.90;;;;;;4959797;28;21991;-73
2022/10/21 04:11:00;;;;;;;16.60;7.68;;;12.90;99.90;;;;;;4965101;28;20591;-73
2022/10/21 04:13:26;;;;;;;25.10;9.48;;;13.10;99.90;;;;;;4949961;28;20043;-73
2022/10/21 04:16:00;;;;;;;22.80;8.57;;;13.20;99.90;;;;;;4966213;28;20804;-73
2022/10/21 04:18:26;;;;;;;19.90;8.68;;;13.30;99.90;;;;;;4965748;28;20042;-73
2022/10/21 04:20:51;;;;;;;22.75;8.43;;;13.30;99.90;;;;;;4964337;28;20038;-73
2022/10/21 04:23:17;;;;;;;19.42;8.95;;;13.40;99.90;;;;;;4957805;28;20031;-73
2022/10/21 04:25:43;;;;;;;23.92;9.43;;;13.40;99.90;;;;;;4958685;28;20032;-73
2022/10/21 04:28:09;;;;;;;27.90;10.35;;;13.30;99.90;;;;;;4965158;28;20471;-73
2022/10/21 04:30:35;;;;;;;19.90;9.02;;;13.20;99.90;;;;;;4947047;28;20158;-71
2022/10/21 04:33:01;;;;;;;17.73;8.90;;;13.10;99.90;;;;;;4961980;28;20030;-72
2022/10/21 04:35:26;;;;;;;18.70;8.27;;;13.00;99.90;;;;;;4966396;28;20050;-72
2022/10/21 04:37:52;;;;;;;19.25;8.85;;;13.00;99.90;;;;;;4960862;28;20086;-72
2022/10/21 04:40:17;;;;;;;17.15;7.80;;;13.00;99.90;;;;;;4965883;28;20054;-71
2022/10/21 04:42:47;;;;;;;16.00;7.05;;;13.10;99.90;;;;;;4965307;28;20045;-72
2022/10/21 04:45:13;;;;;;;16.23;6.95;;;13.10;99.90;;;;;;4947995;28;20456;-72
2022/10/21 04:47:38;;;;;;;11.82;4.93;;;13.20;99.90;;;;;;4964319;28;20043;-72
2022/10/21 04:50:04;;;;;;;18.27;6.57;;;13.40;99.90;;;;;;4971770;28;20113;-72
2022/10/21 04:52:30;;;;;;;19.88;6.70;;;13.50;99.90;;;;;;4972177;28;20517;-72
2022/10/21 04:54:55;;;;;;;19.83;6.78;;;13.50;99.90;;;;;;4972382;28;20067;-72
2022/10/21 04:57:21;;;;;;;21.48;6.65;;;13.50;99.90;;;;;;4972156;28;20500;-72
2022/10/21 04:59:47;;;;;;;15.75;6.25;;;13.60;99.90;;;;;;4974065;28;20037;-72
2022/10/21 05:02:12;;;;;;;13.95;5.82;;;13.60;99.90;;;;;;4973124;28;20038;-72
2022/10/21 05:04:38;;;;;;;10.45;4.72;;;13.60;99.90;;;;;;4970162;28;21663;-72
2022/10/21 05:07:04;;;;;;;13.45;4.53;;;13.60;99.90;;;;;;4970215;28;20429;-73
2022/10/21 05:09:29;;;;;;;13.30;4.30;;;13.60;99.90;;;;;;4965189;28;20039;-72
2022/10/21 05:11:55;;;;;;;8.60;4.22;;;13.60;99.90;;;;;;4965444;28;20093;-72
2022/10/21 05:14:21;;;;;;;13.15;5.07;;;13.60;99.90;;;;;;4969990;28;20034;-72
2022/10/21 05:16:46;;;;;;;12.65;3.75;;;13.50;99.90;;;;;;4970981;28;20045;-72
2022/10/21 05:19:12;;;;;;;12.88;4.32;;;13.60;99.90;;;;;;4971889;28;20047;-72
2022/10/21 05:21:38;;;;;;;13.10;4.78;;;13.60;99.90;;;;;;4970647;28;20039;-72
2022/10/21 05:24:04;;;;;;;12.88;5.03;;;13.70;99.90;;;;;;4970281;28;20421;-72
2022/10/21 05:26:29;;;;;;;13.27;4.53;;;13.80;99.90;;;;;;4966853;28;20027;-72
2022/10/21 05:28:56;;;;;;;11.88;4.88;;;13.80;99.90;;;;;;4971295;28;20445;-72
2022/10/21 05:31:22;;;;;;;16.35;4.45;;;13.90;99.90;;;;;;4969834;28;20039;-72
2022/10/21 05:33:47;;;;;;;15.05;4.53;;;14.00;99.90;;;;;;4971409;28;20371;-72
2022/10/21 05:36:13;;;;;;;16.20;4.90;;;13.90;99.90;;;;;;4971283;28;20118;-72
2022/10/21 05:38:39;;;;;;;13.82;4.50;;;14.00;99.90;;;;;;4952641;28;21848;-71
2022/10/21 05:41:04;;;;;;;15.60;4.57;;;14.00;99.90;;;;;;4968922;28;20063;-72
2022/10/21 05:43:30;;;;;;;16.25;4.85;;;14.00;99.90;;;;;;4970015;28;20030;-72
2022/10/21 05:45:56;;;;;;;17.40;4.63;;;14.10;99.90;;;;;;4970646;28;20043;-72
2022/10/21 05:48:22;;;;;;;13.68;4.80;;;14.10;99.90;;;;;;4969743;28;20088;-72
2022/10/21 05:50:51;;;;;;;14.93;4.53;;;14.20;99.90;;;;;;4968690;28;20038;-72
2022/10/21 05:53:17;;;;;;;17.58;4.45;;;14.20;99.90;;;;;;4958646;28;20038;-72
2022/10/21 05:55:43;;;;;;;12.70;3.83;;;14.20;99.90;;;;;;4969086;28;20043;-72
2022/10/21 05:58:08;;;;;;;13.77;4.30;;;14.20;99.90;;;;;;4969072;28;20512;-72
2022/10/21 06:00:34;;;;;;;12.63;3.70;;;14.30;99.90;;;;;;4965166;28;20034;-72
2022/10/21 06:03:00;;;;;;;20.98;5.32;;;14.20;99.90;;;;;;4970801;28;20041;-72
2022/10/21 06:05:25;;;;;;;13.20;4.47;;;14.20;99.90;;;;;;4967390;28;20041;-72
2022/10/21 06:07:51;;;;;;;13.27;3.63;;;14.20;99.90;;;;;;4967574;28;20121;-72
2022/10/21 06:10:17;;;;;;;17.63;4.57;;;14.20;99.90;;;;;;4960730;28;20035;-72
2022/10/21 06:12:42;;;;;;;12.52;4.57;;;14.30;99.90;;;;;;4964454;28;20031;-72
2022/10/21 06:15:08;;;;;;;13.88;4.57;;;14.30;99.90;;;;;;4966489;28;20039;-72
2022/10/21 06:17:34;;;;;;;14.15;4.38;;;14.30;99.90;;;;;;4965502;28;20469;-72
2022/10/21 06:20:00;;;;;;;17.23;5.07;;;14.40;99.90;;;;;;4967763;28;20054;-72
2022/10/21 06:22:27;;;;;;;13.70;4.32;;;14.40;99.90;;;;;;4969583;28;20043;-72
2022/10/21 06:24:53;;;;;;;21.55;5.68;;;14.50;99.90;;;;;;4968284;28;20066;-72
2022/10/21 06:27:19;;;;;;;11.85;4.47;;;14.50;99.90;;;;;;4971737;28;20043;-72
2022/10/21 06:29:44;;;;;;;16.15;5.05;;;14.60;99.90;;;;;;4968987;28;20035;-72
2022/10/21 06:32:11;;;;;;;14.65;4.53;;;14.60;99.90;;;;;;4971162;28;20125;-72
2022/10/21 06:34:36;;;;;;;19.00;4.97;;;14.80;99.90;;;;;;4977987;28;20038;-72
2022/10/21 06:37:02;;;;;;;20.20;4.75;;;14.90;99.90;;;;;;4981792;28;20054;-72
2022/10/21 06:39:28;;;;;;;21.75;4.45;;;15.00;99.90;;;;;;4975118;28;20034;-73
2022/10/21 06:41:53;;;;;;;15.82;3.78;;;15.10;99.90;;;;;;4958358;28;20707;-72
2022/10/21 06:44:19;;;;;;;20.60;4.40;;;15.10;99.90;;;;;;4970015;28;20559;-72
2022/10/21 06:46:45;;;;;;;20.02;4.28;;;15.20;99.90;;;;;;4969511;28;20031;-72
2022/10/21 06:49:10;;;;;;;16.67;4.15;;;15.20;99.90;;;;;;4966282;28;20093;-72
2022/10/21 06:51:36;;;;;;;18.33;4.35;;;15.30;99.90;;;;;;4967742;28;20514;-72
2022/10/21 06:54:02;;;;;;;14.63;4.40;;;15.30;99.90;;;;;;4957379;28;20057;-73
2022/10/21 06:56:27;;;;;;;18.65;3.97;;;15.30;99.90;;;;;;4969898;28;20031;-73
2022/10/21 06:58:56;;;;;;;27.45;4.45;;;15.40;99.90;;;;;;4967674;28;20030;-72
2022/10/21 07:01:24;;;;;;;17.53;4.53;;;15.30;99.90;;;;;;4950547;28;20030;-73
2022/10/21 07:03:50;;;;;;;25.17;4.20;;;15.40;99.90;;;;;;4966006;28;20030;-73
2022/10/21 07:06:17;;;;;;;17.20;4.35;;;15.50;99.90;;;;;;4959346;28;20116;-72
2022/10/21 07:08:43;;;;;;;13.93;3.70;;;15.50;99.90;;;;;;4963206;28;20041;-73
2022/10/21 07:11:11;;;;;;;18.13;3.60;;;15.60;99.90;;;;;;4970248;28;20513;-73
2022/10/21 07:13:37;;;;;;;17.23;3.72;;;15.70;99.90;;;;;;4964960;28;20031;-73
2022/10/21 07:16:12;;;;;;;19.33;4.05;;;15.70;99.90;;;;;;4972576;28;20045;-74
2022/10/21 07:18:38;;;;;;;17.83;4.32;;;15.80;99.90;;;;;;4969818;28;20077;-73
2022/10/21 07:21:05;;;;;;;16.35;4.10;;;15.90;99.90;;;;;;4976476;28;20030;-73
2022/10/21 07:23:31;;;;;;;22.25;4.50;;;16.00;99.90;;;;;;4968801;28;20081;-72
2022/10/21 07:25:57;;;;;;;18.38;4.30;;;16.10;99.90;;;;;;4970654;28;20592;-73
2022/10/21 07:28:22;;;;;;;19.42;4.10;;;16.20;99.90;;;;;;4952991;28;20042;-72
2022/10/21 07:30:48;;;;;;;20.13;3.83;;;16.30;99.90;;;;;;4970465;28;20035;-73
2022/10/21 07:33:14;;;;;;;20.58;4.07;;;16.40;99.90;;;;;;4962358;28;20080;-72
2022/10/21 07:35:40;;;;;;;15.02;3.80;;;16.50;99.90;;;;;;4976475;28;20034;-73
2022/10/21 07:38:06;;;;;;;20.98;4.38;;;16.70;99.90;;;;;;4963257;28;20046;-73
2022/10/21 07:40:37;;;;;;;17.75;3.20;;;16.80;99.90;;;;;;4962961;28;20035;-73
2022/10/21 07:43:02;;;;;;;16.17;3.70;;;16.90;99.90;;;;;;4968577;28;20536;-77
2022/10/21 07:45:28;;;;;;;27.92;3.40;;;17.00;99.90;;;;;;4967795;28;20034;-72
2022/10/21 07:47:53;;;;;;;15.35;3.08;;;17.10;99.90;;;;;;4970020;28;20075;-73
2022/10/21 07:50:19;;;;;;;18.17;3.70;;;17.20;99.90;;;;;;4969760;28;20041;-73
2022/10/21 07:52:45;;;;;;;21.55;3.22;;;17.40;99.90;;;;;;4950078;28;20030;-73
2022/10/21 07:55:15;;;;;;;14.18;2.88;;;17.50;99.90;;;;;;4970910;28;20109;-72
2022/10/21 07:57:43;;;;;;;15.75;2.80;;;17.60;99.90;;;;;;4963823;28;20035;-72
2022/10/21 08:00:11;;;;;;;13.60;3.13;;;17.70;99.90;;;;;;4969834;28;20057;-72
2022/10/21 08:02:37;;;;;;;16.27;3.00;;;17.70;99.90;;;;;;4963535;28;20027;-73
2022/10/21 08:05:03;;;;;;;18.45;3.20;;;17.80;99.90;;;;;;4960590;28;20062;-72
2022/10/21 08:07:30;;;;;;;15.75;2.85;;;17.90;99.90;;;;;;4967446;28;20042;-72
2022/10/21 08:09:56;;;;;;;19.23;3.03;;;18.00;99.90;;;;;;4961449;28;20035;-72
2022/10/21 08:12:23;;;;;;;19.80;2.67;;;18.10;99.90;;;;;;4963044;28;20098;-75
2022/10/21 08:14:49;;;;;;;17.52;3.00;;;18.20;99.90;;;;;;4966887;28;20039;-73
2022/10/21 08:17:15;;;;;;;16.50;3.05;;;18.20;99.90;;;;;;4973501;28;20149;-74
2022/10/21 08:19:40;;;;;;;15.32;3.53;;;18.10;99.90;;;;;;4966089;28;20485;-73
2022/10/21 08:22:06;;;;;;;16.52;3.08;;;18.00;99.90;;;;;;4966239;28;20058;-72
2022/10/21 08:24:32;;;;;;;16.48;2.88;;;18.00;99.90;;;;;;4963656;28;20089;-73
2022/10/21 08:26:57;;;;;;;21.95;3.22;;;17.90;99.90;;;;;;4952070;28;20023;-72
2022/10/21 08:29:23;;;;;;;16.20;2.85;;;17.80;99.90;;;;;;4969594;28;20452;-73
2022/10/21 08:31:49;;;;;;;14.02;2.95;;;17.70;99.90;;;;;;4969764;28;20199;-72
2022/10/21 08:34:14;;;;;;;15.27;2.42;;;17.60;99.90;;;;;;4969750;28;20113;-72
2022/10/21 08:36:40;;;;;;;12.25;2.45;;;17.60;99.90;;;;;;4978653;28;20054;-73
2022/10/21 08:39:06;;;;;;;19.75;3.25;;;17.50;99.90;;;;;;4984330;28;20042;-71
2022/10/21 08:41:47;;;;;;;13.10;2.70;;;17.50;99.90;;;;;;4965147;28;20111;-72
2022/10/21 08:44:42;;;;;;;22.25;3.85;;;17.40;99.90;;;;;;4969130;28;20031;-72
2022/10/21 08:47:25;;;;;;;19.77;2.95;;;17.50;99.90;;;;;;4972872;28;20027;-73
2022/10/21 08:50:04;;;;;;;13.93;3.22;;;17.40;99.90;;;;;;4969359;28;20042;-72
2022/10/21 08:52:53;;;;;;;15.05;3.03;;;17.40;99.90;;;;;;4958827;28;20085;-77
2022/10/21 08:55:27;;;;;;;;;;;17.30;99.90;;;;;;4950371;29;20039;-71
2022/10/21 08:57:53;;;;;;;15.40;2.80;;;17.40;99.90;;;;;;4949990;29;19916;-71
2022/10/21 09:00:26;;;;;;;15.55;2.38;;;17.40;99.90;;;;;;4966108;28;20038;-72
2022/10/21 09:02:58;;;;;;;16.55;2.70;;;17.40;99.90;;;;;;4969175;28;20042;-76
2022/10/21 09:05:47;;;;;;;15.18;2.63;;;17.40;99.90;;;;;;4967705;28;20027;-72
2022/10/21 09:08:36;;;;;;;17.75;3.38;;;17.50;99.90;;;;;;4943830;28;20462;-71
2022/10/21 09:11:09;;;;;;;17.33;3.28;;;17.60;99.90;;;;;;4969449;28;20110;-72
2022/10/21 09:13:50;;;;;;;13.73;2.50;;;17.60;99.90;;;;;;4969150;28;20039;-72
2022/10/21 09:16:26;;;;;;;13.18;2.72;;;17.70;99.90;;;;;;4951382;28;20035;-73
2022/10/21 09:19:18;;;;;;;16.10;2.40;;;17.70;99.90;;;;;;4968959;28;20089;-71
2022/10/21 09:22:27;;;;;;;13.82;2.58;;;17.70;99.90;;;;;;4969230;28;20509;-76
2022/10/21 09:24:57;;;;;;;;;;;17.60;99.90;;;;;;4972964;28;20042;-71
2022/10/21 09:27:23;;;;;;;18.15;2.53;;;17.60;99.90;;;;;;4968585;28;19952;-72
2022/10/21 09:29:56;;;;;;;13.57;2.58;;;17.60;99.90;;;;;;4967785;28;20094;-72
2022/10/21 09:32:27;;;;;;;18.13;2.70;;;17.60;99.90;;;;;;4965978;28;20098;-72
2022/10/21 09:35:05;;;;;;;18.52;3.00;;;17.50;99.90;;;;;;4965676;28;20059;-71
2022/10/21 09:37:43;;;;;;;21.23;3.13;;;17.40;99.90;;;;;;4953506;28;20051;-72
2022/10/21 09:40:19;;;;;;;19.98;2.72;;;17.40;99.90;;;;;;4953643;29;20102;-72
2022/10/21 09:42:47;;;;;;;17.23;3.35;;;17.40;99.90;;;;;;4953498;29;20038;-71
2022/10/21 09:45:33;;;;;;;14.50;2.70;;;17.40;99.90;;;;;;4953028;29;20031;-78
2022/10/21 09:48:03;;;;;;;16.13;2.95;;;17.40;99.90;;;;;;4951876;29;20457;-72
2022/10/21 09:50:31;;;;;;;14.38;2.75;;;17.70;99.90;;;;;;4953136;29;20115;-74
2022/10/21 09:53:16;;;;;;;14.10;2.50;;;18.10;99.90;;;;;;4953091;29;20791;-71
2022/10/21 09:55:46;;;;;;;14.02;2.70;;;18.30;99.90;;;;;;4954269;28;20553;-76
2022/10/21 09:58:25;;;;;;;13.63;2.30;;;18.30;99.90;;;;;;4964501;28;20030;-71
2022/10/21 10:00:51;;;;;;;12.07;1.95;;;18.40;99.90;;;;;;4972004;28;20040;-73
2022/10/21 10:03:41;;;;;;;14.75;2.45;;;18.40;99.90;;;;;;4972248;28;20070;-73
2022/10/21 10:06:07;;;;;;;13.25;2.67;;;18.30;99.90;;;;;;4972065;28;20045;-72
2022/10/21 10:08:38;;;;;;;15.45;2.90;;;18.20;99.90;;;;;;4972251;28;20051;-71
2022/10/21 10:11:12;;;;;;;18.67;3.05;;;18.10;99.90;;;;;;4972135;28;20046;-77
2022/10/21 10:13:47;;;;;;;14.60;2.67;;;18.00;99.90;;;;;;4971959;28;20564;-71
2022/10/21 10:16:26;;;;;;;17.88;2.95;;;18.00;99.90;;;;;;4972075;28;20031;-72
2022/10/21 10:19:15;;;;;;;15.13;3.23;;;17.90;99.90;;;;;;4971923;28;20720;-72
2022/10/21 10:21:41;;;;;;;14.77;2.80;;;17.90;99.90;;;;;;4970554;28;20496;-73
2022/10/21 10:24:16;;;;;;;19.77;2.40;;;17.80;99.90;;;;;;4971930;28;20039;-71
2022/10/21 10:26:42;;;;;;;13.27;2.65;;;17.80;99.90;;;;;;4971626;28;20027;-74
2022/10/21 10:29:14;;;;;;;17.27;3.30;;;17.90;99.90;;;;;;4971457;28;20049;-74
2022/10/21 10:31:49;;;;;;;16.75;3.63;;;18.00;99.90;;;;;;4970381;28;20046;-72
2022/10/21 10:34:22;;;;;;;16.42;2.58;;;18.10;99.90;;;;;;4971662;28;20058;-72
2022/10/21 10:36:49;;;;;;;18.63;2.75;;;18.00;99.90;;;;;;4971801;28;20096;-73
2022/10/21 10:39:22;;;;;;;18.00;2.95;;;18.00;99.90;;;;;;4971349;28;20059;-72
2022/10/21 10:41:50;;;;;;;18.58;3.03;;;18.00;99.90;;;;;;4971374;28;20760;-72
2022/10/21 10:44:35;;;;;;;16.23;3.58;;;18.00;99.90;;;;;;4970993;28;20485;-73
2022/10/21 10:47:02;;;;;;;18.15;3.00;;;18.10;99.90;;;;;;4970795;28;20101;-71
2022/10/21 10:49:36;;;;;;;17.63;2.72;;;18.30;99.90;;;;;;4970756;28;20049;-69
2022/10/21 10:52:10;;;;;;;18.23;2.92;;;18.90;99.90;;;;;;4971312;28;20118;-72
2022/10/21 10:54:40;;;;;;;17.20;3.90;;;19.20;99.90;;;;;;4971275;28;20474;-76
2022/10/21 10:57:18;;;;;;;16.60;3.17;;;19.30;99.90;;;;;;4971174;28;20038;-79
2022/10/21 10:59:51;;;;;;;22.70;3.50;;;19.40;99.90;;;;;;4971152;28;20054;-71
2022/10/21 11:02:28;;;;;;;17.67;3.20;;;19.70;99.90;;;;;;4971383;28;20053;-80
2022/10/21 11:05:08;;;;;;;16.95;3.00;;;19.40;99.90;;;;;;4971424;28;20121;-80
2022/10/21 11:07:43;;;;;;;20.52;3.20;;;19.10;99.90;;;;;;4953819;28;20031;-75
2022/10/21 11:10:30;;;;;;;19.92;3.45;;;18.90;99.90;;;;;;4971022;28;20044;-71
2022/10/21 11:12:57;;;;;;;17.52;3.15;;;18.80;99.90;;;;;;4969270;28;20061;-72
2022/10/21 11:15:41;;;;;;;17.08;3.47;;;18.90;99.90;;;;;;4971069;28;20042;-71
2022/10/21 11:18:36;;;;;;;16.00;2.47;;;18.90;99.90;;;;;;4970765;28;20047;-78
2022/10/21 11:21:01;;;;;;;18.98;3.20;;;18.90;99.90;;;;;;4966830;28;20046;-71
2022/10/21 11:23:36;;;;;;;17.45;3.22;;;18.90;99.90;;;;;;4990040;28;20037;-70
2022/10/21 11:26:15;;;;;;;18.05;3.08;;;19.00;99.90;;;;;;4990258;28;20030;-71
2022/10/21 11:28:55;;;;;;;19.48;3.55;;;19.30;99.90;;;;;;4990212;28;20045;-74
2022/10/21 11:31:49;;;;;;;20.83;3.35;;;19.60;99.90;;;;;;4990146;28;20488;-72
2022/10/21 11:34:25;;;;;;;15.57;3.38;;;19.60;99.90;;;;;;4990148;28;20594;-71
2022/10/21 11:37:12;;;;;;;21.65;3.95;;;19.60;99.90;;;;;;4989992;28;20026;-71
2022/10/21 11:39:57;;;;;;;18.83;3.13;;;19.50;99.90;;;;;;4990365;28;20081;-72
2022/10/21 11:42:42;;;;;;;20.17;3.53;;;19.60;99.90;;;;;;4990938;28;20033;-71
2022/10/21 11:45:31;;;;;;;14.75;3.28;;;19.70;99.90;;;;;;4989965;28;20412;-73
2022/10/21 11:48:05;;;;;;;13.97;3.03;;;19.70;99.90;;;;;;4989861;28;20030;-74
2022/10/21 11:51:12;;;;;;;16.77;2.53;;;19.70;99.90;;;;;;4989699;28;20334;-78
2022/10/21 11:54:05;;;;;;;18.73;3.15;;;19.70;99.90;;;;;;4975706;28;20042;-72
2022/10/21 11:56:42;;;;;;;20.02;3.40;;;19.50;99.90;;;;;;4989301;28;20385;-82
2022/10/21 11:59:19;;;;;;;19.08;4.03;;;19.20;99.90;;;;;;4966648;28;20046;-72
2022/10/21 12:02:18;;;;;;;19.65;2.88;;;18.90;99.90;;;;;;4968608;28;20045;-79
2022/10/21 12:04:46;;;;;;;18.67;3.03;;;18.80;99.90;;;;;;4952492;28;20090;-82
2022/10/21 12:07:36;;;;;;;22.00;3.30;;;18.70;99.90;;;;;;4970050;28;20042;-73
2022/10/21 12:10:26;;;;;;;;;;;18.60;99.90;;;;;;4970314;28;20062;-71
2022/10/21 12:12:53;;;;;;;;;;;18.60;99.90;;;;;;4953057;28;19910;-74
2022/10/21 12:15:32;;;;;;;18.13;3.00;;;18.70;99.90;;;;;;4969890;28;19906;-71
2022/10/21 12:18:00;;;;;;;21.77;3.38;;;18.80;99.90;;;;;;4969983;28;20133;-71
2022/10/21 12:20:26;;;;;;;21.00;3.55;;;19.00;99.90;;;;;;4964470;28;20057;-72
2022/10/21 12:23:00;;;;;;;23.08;3.67;;;19.10;99.90;;;;;;4970462;28;20121;-72
2022/10/21 12:25:57;;;;;;;23.90;3.95;;;19.20;99.90;;;;;;4960740;28;20037;-71
2022/10/21 12:29:01;;;;;;;24.08;3.45;;;19.20;99.90;;;;;;4958993;28;20050;-72
2022/10/21 12:31:44;;;;;;;19.25;3.60;;;19.20;99.90;;;;;;4959028;28;20078;-78
2022/10/21 12:34:11;;;;;;;20.75;3.47;;;19.20;99.90;;;;;;4966757;28;20038;-83
2022/10/21 12:36:38;;;;;;;22.23;3.92;;;19.30;99.90;;;;;;4967625;28;20035;-73
2022/10/21 12:39:11;;;;;;;23.17;3.70;;;19.30;99.90;;;;;;4963701;28;20484;-71
2022/10/21 12:41:38;;;;;;;22.60;3.92;;;19.20;99.90;;;;;;4964359;28;20051;-72
2022/10/21 12:44:22;;;;;;;22.50;3.63;;;18.90;99.90;;;;;;4967545;28;20030;-75
2022/10/21 12:46:54;;;;;;;21.73;4.28;;;18.70;99.90;;;;;;4969502;28;20081;-71
2022/10/21 12:49:34;;;;;;;21.40;4.13;;;18.60;99.90;;;;;;4969123;28;20153;-73
2022/10/21 12:52:20;;;;;;;20.90;3.97;;;18.40;99.90;;;;;;4969271;28;20082;-74
2022/10/21 12:54:55;;;;;;;26.48;3.85;;;18.30;99.90;;;;;;4969214;28;20035;-72